Elmendorf Air Force Base
PAED : rendu visible

Aérodrome :











RETROUVEZ-NOUS SUR...

 
LOGIN :

S'inscrire | Disclaimer

   EN    FR    IT 

 









Légende :    VFR   VFR Marginal   IFR   IFR Intensif   IFR Très Intensif
Visi : 
Plafond : 
>= 8 km
>= 3000ft
5 à 8 km
1000 à 3000 ft
1500m à 5 km
500 à 1000 ft
800 à 1500m
200 à 500 ft
< 800m
< 200 ft
Symboles :   Orages  Brouillard  Fortes neiges  Fortes précipitations  Vent > 20 kt






- Altitude de l'aérodrome : 212 ft
- Code IATA : EDF


PAED - Elmendorf Air Force Base

DERNIER METAR :
  • 271056Z AUTO 00000KT 10SM CLR M15/M16 A2953 RMK AO2 SLP999 T11461165 $

METARs EXPIRÉS :
  • 270956Z AUTO 06004KT 10SM CLR M16/M18 A2952 RMK AO2 SLP995 T11561177 $
  • 270856Z AUTO 00000KT 10SM CLR M12/M14 A2952 RMK AO2 SLP995 T11221142 410341139 52009 $
  • 270756Z AUTO 00000KT 10SM CLR M12/M14 A2951 RMK AO2 SLP992 T11191144 $

TAF TAF PAED
Valide du 27 à 11h jusqu'au 28 à 17h UTC


271100Z 2711/2817 04003KT 9999 SKC QNH2948INS
BECMG 2721/2722 04003KT 9999 SCT007 QNH2953INS TXM07/2800Z TNM17/2811Z



MET'MAP, la Météo Aéronautique d'un coup d'oeil ! - Copyright ORBIFLY Décembre 2007 - Disclaimer

ORBIFLY MET'MAP TEAM :

Programmation & Développement : Alexandra Zaïnal
Sur une idée originale de : Baudouin d'Aumeries
Assistance à la programmation : Marc-Olivier Méhu
Soutien technique & logistique : Manuel Goepfert

Contact : metmap@orbifly.com




SOURCES & CREDITS :

   NOAA       Earth
Advisory